FDX4218 TJSJ-TIST
Flight info
| Callsign | FDX4218 |
|---|---|
| Flight time | 0h 13m |
| Altitude | 13000 |
| Route | SJU RTE2 STT |
| Aircraft | B752/M-VGDW/C |
Departure
| Time | 2026-04-30 18:20 |
|---|---|
| Airport | Luis Munoz Marin International Airport (TJSJ) |
Arrival
| Time | 2026-04-30 18:33 |
|---|---|
| Airport | Cyril E. King Airport (TIST) |
| Time | Latitude | Longitude | Altitude | Speed | Heading |
|---|---|---|---|---|---|
| 2026-04-30 18:15 | 18.43719 | -65.99458 | 20 ft | 0 kts | 87° |
| 2026-04-30 18:15 | 18.43699 | -65.99444 | 20 ft | 8 kts | 193° |
| 2026-04-30 18:16 | 18.43589 | -65.99566 | 20 ft | 13 kts | 177° |
| 2026-04-30 18:16 | 18.43482 | -65.99759 | 20 ft | 25 kts | 270° |
| 2026-04-30 18:17 | 18.43483 | -65.99971 | 20 ft | 32 kts | 270° |
| 2026-04-30 18:17 | 18.43485 | -66.00231 | 20 ft | 36 kts | 270° |
| 2026-04-30 18:17 | 18.43485 | -66.00693 | 20 ft | 32 kts | 270° |
| 2026-04-30 18:18 | 18.43485 | -66.00901 | 20 ft | 22 kts | 270° |
| 2026-04-30 18:18 | 18.43487 | -66.01074 | 20 ft | 25 kts | 271° |
| 2026-04-30 18:18 | 18.43485 | -66.01236 | 20 ft | 17 kts | 267° |
| 2026-04-30 18:18 | 18.43452 | -66.01345 | 20 ft | 15 kts | 200° |
| 2026-04-30 18:19 | 18.43362 | -66.01327 | 20 ft | 11 kts | 113° |
| 2026-04-30 18:19 | 18.43355 | -66.01176 | 20 ft | 55 kts | 89° |
| 2026-04-30 18:19 | 18.43356 | -66.00544 | 20 ft | 124 kts | 90° |
| 2026-04-30 18:19 | 18.43350 | -65.99466 | 255 ft | 156 kts | 88° |
| 2026-04-30 18:20 | 18.43413 | -65.98294 | 891 ft | 169 kts | 85° |
| 2026-04-30 18:20 | 18.43793 | -65.97104 | 1683 ft | 174 kts | 78° |
| 2026-04-30 18:20 | 18.44175 | -65.95863 | 2469 ft | 188 kts | 75° |
| 2026-04-30 18:20 | 18.44419 | -65.94940 | 2998 ft | 199 kts | 76° |
| 2026-04-30 18:21 | 18.44742 | -65.93464 | 3780 ft | 216 kts | 77° |
| 2026-04-30 18:21 | 18.45098 | -65.91291 | 4817 ft | 238 kts | 80° |
| 2026-04-30 18:21 | 18.45249 | -65.90098 | 5347 ft | 250 kts | 83° |
| 2026-04-30 18:21 | 18.45463 | -65.87554 | 6370 ft | 275 kts | 86° |
| 2026-04-30 18:22 | 18.45589 | -65.85478 | 7137 ft | 293 kts | 87° |
| 2026-04-30 18:22 | 18.45795 | -65.81735 | 8409 ft | 321 kts | 86° |
| 2026-04-30 18:22 | 18.45938 | -65.79335 | 9171 ft | 335 kts | 86° |
| 2026-04-30 18:23 | 18.46093 | -65.76841 | 9930 ft | 348 kts | 86° |
| 2026-04-30 18:23 | 18.46258 | -65.74258 | 10688 ft | 359 kts | 86° |
| 2026-04-30 18:23 | 18.46433 | -65.71562 | 11015 ft | 383 kts | 86° |
| 2026-04-30 18:23 | 18.46624 | -65.68617 | 11008 ft | 410 kts | 86° |
| 2026-04-30 18:24 | 18.46996 | -65.62838 | 11010 ft | 388 kts | 87° |
| 2026-04-30 18:24 | 18.46875 | -65.60012 | 11010 ft | 383 kts | 95° |
| 2026-04-30 18:24 | 18.46819 | -65.57135 | 11002 ft | 379 kts | 89° |
| 2026-04-30 18:25 | 18.46959 | -65.54450 | 10994 ft | 354 kts | 85° |
| 2026-04-30 18:25 | 18.47507 | -65.49620 | 10990 ft | 312 kts | 82° |
| 2026-04-30 18:25 | 18.47820 | -65.47428 | 10902 ft | 297 kts | 83° |
| 2026-04-30 18:26 | 18.46883 | -65.43257 | 9900 ft | 296 kts | 115° |
| 2026-04-30 18:26 | 18.45912 | -65.41341 | 9404 ft | 297 kts | 120° |
| 2026-04-30 18:26 | 18.44837 | -65.39473 | 8904 ft | 298 kts | 122° |
| 2026-04-30 18:27 | 18.42620 | -65.35771 | 7904 ft | 299 kts | 122° |
| 2026-04-30 18:27 | 18.41537 | -65.33930 | 7411 ft | 300 kts | 121° |
| 2026-04-30 18:28 | 18.39394 | -65.30164 | 6413 ft | 300 kts | 120° |
| 2026-04-30 18:28 | 18.38341 | -65.28259 | 5913 ft | 301 kts | 120° |
| 2026-04-30 18:28 | 18.36267 | -65.24437 | 4914 ft | 301 kts | 119° |
| 2026-04-30 18:29 | 18.35240 | -65.22523 | 4415 ft | 301 kts | 119° |
| 2026-04-30 18:29 | 18.32657 | -65.16581 | 3085 ft | 292 kts | 100° |
| 2026-04-30 18:30 | 18.32708 | -65.12543 | 3000 ft | 264 kts | 84° |
| 2026-04-30 18:30 | 18.33212 | -65.08918 | 2866 ft | 238 kts | 84° |
| 2026-04-30 18:31 | 18.33333 | -65.07379 | 2598 ft | 183 kts | 86° |
| 2026-04-30 18:31 | 18.33459 | -65.04896 | 1601 ft | 164 kts | 88° |
| 2026-04-30 18:32 | 18.33539 | -65.02572 | 787 ft | 152 kts | 89° |
| 2026-04-30 18:32 | 18.33575 | -65.01482 | 495 ft | 148 kts | 89° |
| 2026-04-30 18:32 | 18.33644 | -64.99338 | 199 ft | 147 kts | 89° |
| 2026-04-30 18:33 | 18.33691 | -64.98281 | 54 ft | 135 kts | 89° |
| 2026-04-30 18:33 | 18.33733 | -64.97186 | 34 ft | 32 kts | 88° |
| 2026-04-30 18:33 | 18.33736 | -64.96943 | 34 ft | 34 kts | 90° |
| 2026-04-30 18:34 | 18.33720 | -64.96737 | 34 ft | 11 kts | 144° |
| 2026-04-30 18:34 | 18.33663 | -64.96875 | 34 ft | 18 kts | 266° |
| 2026-04-30 18:34 | 18.33654 | -64.97026 | 34 ft | 22 kts | 267° |
| 2026-04-30 18:35 | 18.33647 | -64.97195 | 34 ft | 24 kts | 269° |
| 2026-04-30 18:35 | 18.33638 | -64.97398 | 34 ft | 28 kts | 262° |
| 2026-04-30 18:35 | 18.33599 | -64.97455 | 34 ft | 10 kts | 199° |
| 2026-04-30 18:36 | 18.33552 | -64.97506 | 34 ft | 0 kts | 319° |